Ana Sayfa
METAR-TAF:

METAR-TAF

Havaalanları :

Moroni, Komor Adaları

Enlem: 11-32S, Boylam: 043-16E, yükseklik: 29 m

METAR: eksik

Saat: 08:32 (05:32 UTC)

Tahmin

Rapor saat 17:00 UTC de 12 saat ve 32 dakika önce yapıldı.
Ayın 17'si saat 18 UTC'den ayın 18'si saat 24 UTC'ye kadar geçerli Tahmin
Rüzgar doğu/güneydoğudan 5 kt
Görüş mesafesi 10 km veya daha fazla
2000 ft yükseklikte az bulutlu
3000 ft yükseklikte parçalı bulutlu
Olasılık 30% :
Geçici
ayın 17'si saat 18 UTC'den ayın 18'si saat 09 UTC'ye kadar
Görüş mesafesi: 4000 m
2000 ft yükseklikte parçalı bulutlu, Kümülonimbus.
3000 ft yükseklikte parçalı çok bulutlu
Dönüşüyor
ayın 18'si saat 05 UTC'den ayın 18'si saat 07 UTC'ye kadar
Rüzgar güney/güneybatıdan 12 kt
Dönüşüyor
ayın 18'si saat 15 UTC'den ayın 18'si saat 17 UTC'ye kadar
Rüzgar doğu/güneydoğudan 5 kt

TAF: FMCH 171700Z 1718/1824 11005KT 9999 FEW020 SCT030 PROB30 TEMPO 1718/1809 4000 TSSHRA SCT020CB BKN030 BECMG 1805/1807 20012KT BECMG 1815/1817 11005KT

4.000'den fazla havaalanı için hava durumu gözlemleri ve tahminleri (METAR ve TAF raporları).

Kullanılabilir istasyonlar harita üzerinde sarı ve kırmızı noktalarla gösterilir.

İstasyonun adını görmek için fareyi noktanın üzerinde gezdirin.

Sonrasında hava gözlem ve tahminlerini görmek için tıklayın.

Haritayı değiştirmek için: yaklaştırmak için siyah artı işaretli yeşil düğmeye ve uzaklaştırmak için de eksi işaretli düğmeye hızla tıklayın; bitişik haritalar için yeşil okları kullanın.


METAR-TAF: